Racecast

Annie Fowler

Timnath (CO) · 10 · CO D4A · Compare head to head

Athlete rating 133.8 2026 TF season
Best race 136.9 TF
Races 29
Seasons 3 2024 — 2026

RankedNation #1564·CO #80·CO D4A #47·Team #2 ?

Speed rating — all races

Cross Country

XC speed rating

2025 XC 131.7

Timnath (CO) · Grade 10

Date Meet Event Result Place Rating Difficulty PR/SR Flags
2025-11-22 Toka Sticks Golf Course 5000m 19:49.6 203rd · 5th on team 124.9 +0.009 CSR
2025-11-01 Norris Penrose Event Center 5000m 19:43.4 20th · 3rd on team 131.1 +0.067 ★CR CSR
2025-10-10 Spring Canyon Park 5000m 18:47.6 3rd · 2nd on team 133.8 +0.037 ★CR CSR
2025-09-19 Great Park 4828m 17:14 61st · 2nd on team 133.8 -0.024 ★PR ★CR SR CSR
2025-09-13 Heritage High School 5000m 18:11.9 40th · 2nd on team 135.0 -0.001 ★PR ★CR SR CSR RSR
2025-08-30 Fort Collins High School 5000m 19:03 10th · 2nd on team 131.5 +0.023 PR ★CR SR CSR RSR

2024 XC 128.6

Timnath (CO) · Grade 9

Date Meet Event Result Place Rating Difficulty PR/SR Flags
2024-11-23 Toka Sticks Golf Course 5000m 19:25.8 20th · 1st on team 128.6 +0.009 PR ★CR R SR CSR RSR
2024-09-28 Gans Creek Recreation Area 5000m 21:22.9 5th · 1st on team +0.006 PR ★CR SR CSR

Track & Field

TF speed rating

2026 TF 132.0

Timnath (CO) · Grade 10

Date Meet Event Result Place Rating Difficulty PR/SR Flags
2026-05-16 CHSAA State Championship 800m 2:25.04 18th · 2nd on team 129.1 -0.011
2026-05-08 Hoka St. Vrain Invitational 1600m 5:10.65 35th · 2nd on team 133.8 -0.015 ★PR SR
2026-04-29 Longs Peak and Northern Conference Championships 1600m 5:18.94 3rd · 2nd on team 130.4 -0.014
2026-04-29 Longs Peak and Northern Conference Championships 800m 2:16.31 3rd · 1st on team 136.9 -0.014 ★PR ★R SR RSR
2026-04-24 Longmont Invitational 800m 2:17.38 2nd · 2nd on team 135.7 -0.015 PR SR RSR
2026-04-18 Randall Hess Roughrider Invitational 1600m 5:14.58 10th · 2nd on team 132.2 -0.014 PR SR
2026-04-18 Randall Hess Roughrider Invitational 400m 1:01.38 11th · 2nd on team -0.014 ★PR SR
2026-04-10 The Pomona Invitational 800m 2:24.82 19th · 2nd on team 129.3 -0.011
2026-04-10 Pomona Invite 800m 2:24.82 19th · 2nd on team 129.3 -0.011
2026-04-08 Randy Yaussi PSD Meet 800m 2:22.54 3rd · 2nd on team 131.3 -0.012
2026-04-04 Altitude Running Invitational 800m 2:21.52 11th · 1st on team 132.3 -0.012 SR RSR
2026-03-27 Roosevelt Power Meet Invitational 800m 2:22.22 3rd · 1st on team 131.2 -0.014 SR RSR

2025 TF 133.0

Timnath (CO) · Grade 9

Date Meet Event Result Place Rating Difficulty PR/SR Flags
2025-05-15 CHSAA State Track & Field Championships 800m 2:17.82 13th · 2nd on team 136.6 -0.011 R RSR
2025-05-10 Teddy's Last Chance Qualifier 800m 2:18.92 9th · 1st on team 134.6 -0.014
2025-04-30 Longs Peak and Rocky Mountain League Meet 800m 2:18.95 4th · 2nd on team 134.5 -0.014
2025-04-30 Longs Peak and Rocky Mountain League Meet 1600m 5:15.12 2nd · 1st on team 131.8 -0.014 PR SR
2025-04-19 Randall Hess Roughrider Invitational 800m 2:17.62 3rd · 2nd on team 135.9 -0.014 PR R SR RSR
2025-04-12 Pomona Invite Day #2 1600m 5:32.81 32nd · 3rd on team 125.5 -0.011
2025-04-05 Altitude Running Invite 800m 2:19.94 5th · 2nd on team 133.8 -0.012 PR R SR RSR
2025-03-13 NOCO Roosevelt Qualifier 400m 1:03.65 4th · 1st on team -0.014 PR SR
2025-03-13 NOCO Roosevelt Qualifier 1600m 5:17.24 3rd · 2nd on team 130.9 -0.014 PR R SR RSR